createdAt,value
2023-02-05T00:00:19.090Z,100.00
2023-02-05T00:02:45.648Z,100.00
2023-02-05T00:05:12.335Z,100.00
2023-02-05T00:07:38.697Z,100.00
2023-02-05T00:10:05.748Z,100.00
2023-02-05T00:12:32.352Z,100.00
2023-02-05T00:14:58.810Z,100.00
2023-02-05T00:17:25.204Z,100.00
2023-02-05T00:19:51.598Z,100.00
2023-02-05T00:22:17.978Z,100.00
2023-02-05T00:24:44.406Z,100.00
2023-02-05T00:27:10.938Z,100.00
2023-02-05T00:29:37.986Z,100.00
2023-02-05T00:32:04.588Z,100.00
2023-02-05T00:34:30.977Z,100.00
2023-02-05T00:36:57.565Z,100.00
2023-02-05T00:39:23.955Z,100.00
2023-02-05T00:41:50.861Z,100.00
2023-02-05T00:44:17.225Z,100.00
2023-02-05T00:46:43.614Z,100.00
2023-02-05T00:49:10.003Z,100.00
2023-02-05T00:51:36.486Z,100.00
2023-02-05T00:54:02.899Z,100.00
2023-02-05T00:56:29.706Z,100.00
2023-02-05T00:58:57.456Z,100.00
2023-02-05T01:01:23.912Z,100.00
2023-02-05T01:03:50.356Z,100.00
2023-02-05T01:06:16.940Z,100.00
2023-02-05T01:08:43.384Z,100.00
2023-02-05T01:11:11.147Z,100.00
2023-02-05T01:13:38.455Z,100.00
2023-02-05T01:16:05.463Z,100.00
2023-02-05T01:18:32.078Z,100.00
2023-02-05T01:20:59.192Z,100.00
2023-02-05T01:23:25.847Z,100.00
2023-02-05T01:25:52.367Z,100.00
2023-02-05T01:28:18.941Z,100.00
2023-02-05T01:30:50.209Z,100.00
2023-02-05T01:33:17.562Z,100.00
2023-02-05T01:35:44.855Z,100.00
2023-02-05T01:38:12.561Z,100.00
2023-02-05T01:40:39.651Z,100.00
2023-02-05T01:43:14.092Z,100.00
2023-02-05T01:46:05.677Z,100.00
2023-02-05T01:48:43.802Z,100.00
2023-02-05T01:51:14.301Z,100.00
2023-02-05T01:53:42.637Z,100.00
2023-02-05T01:56:14.756Z,100.00
2023-02-05T01:58:48.053Z,100.00
2023-02-05T02:01:15.166Z,100.00
2023-02-05T02:03:41.688Z,100.00
2023-02-05T02:06:09.378Z,100.00
2023-02-05T02:08:35.829Z,100.00
2023-02-05T02:11:05.470Z,100.00
2023-02-05T02:13:35.367Z,100.00
2023-02-05T02:16:06.462Z,100.00
2023-02-05T02:18:34.775Z,100.00
2023-02-05T02:21:29.499Z,100.00
2023-02-05T02:24:33.625Z,100.00
2023-02-05T02:27:10.200Z,100.00
2023-02-05T02:29:53.877Z,100.00
2023-02-05T02:32:41.438Z,100.00
2023-02-05T02:35:23.402Z,100.00
2023-02-05T02:37:54.855Z,100.00
2023-02-05T02:40:44.583Z,100.00
2023-02-05T02:43:29.376Z,100.00
2023-02-05T02:46:05.316Z,100.00
2023-02-05T02:48:35.026Z,100.00
2023-02-05T02:51:03.466Z,100.00
2023-02-05T02:53:36.460Z,100.00
2023-02-05T02:56:04.520Z,100.00
2023-02-05T02:58:38.798Z,100.00
2023-02-05T03:01:08.876Z,100.00
2023-02-05T03:03:38.363Z,100.00
2023-02-05T03:06:09.753Z,100.00
2023-02-05T03:08:47.155Z,100.00
2023-02-05T03:11:15.600Z,100.00
2023-02-05T03:13:44.716Z,100.00
2023-02-05T03:16:12.815Z,100.00
2023-02-05T03:18:40.048Z,100.00
2023-02-05T03:21:16.614Z,100.00
2023-02-05T03:23:43.865Z,100.00
2023-02-05T03:26:29.213Z,100.00
2023-02-05T03:29:11.560Z,100.00
2023-02-05T03:31:48.270Z,100.00
2023-02-05T03:34:37.619Z,100.00
2023-02-05T03:37:16.522Z,100.00
2023-02-05T03:39:48.180Z,100.00
2023-02-05T03:43:05.182Z,100.00
2023-02-05T03:46:03.260Z,100.00
2023-02-05T03:48:45.574Z,100.00
2023-02-05T03:51:55.375Z,100.00
2023-02-05T03:54:38.648Z,100.00
2023-02-05T03:57:23.961Z,100.00
2023-02-05T03:59:52.229Z,100.00
2023-02-05T04:02:20.917Z,100.00
2023-02-05T04:04:47.684Z,100.00
2023-02-05T04:07:14.895Z,100.00
2023-02-05T04:09:41.809Z,100.00
2023-02-05T04:12:09.709Z,100.00
2023-02-05T04:14:37.921Z,100.00
2023-02-05T04:17:04.873Z,100.00
2023-02-05T04:19:31.252Z,100.00
2023-02-05T04:21:59.910Z,100.00
2023-02-05T04:24:27.342Z,100.00
2023-02-05T04:26:53.897Z,100.00
2023-02-05T04:29:20.505Z,100.00
2023-02-05T04:31:50.226Z,100.00
2023-02-05T04:34:16.785Z,100.00
2023-02-05T04:36:43.873Z,100.00
2023-02-05T04:39:10.742Z,100.00
2023-02-05T04:41:37.336Z,100.00
2023-02-05T04:44:03.987Z,100.00
2023-02-05T04:46:30.654Z,100.00
2023-02-05T04:48:57.043Z,100.00
2023-02-05T04:51:23.756Z,100.00
2023-02-05T04:53:50.231Z,100.00
2023-02-05T04:56:17.860Z,100.00
2023-02-05T04:58:45.159Z,100.00
2023-02-05T05:01:18.096Z,100.00
2023-02-05T05:03:45.028Z,100.00
2023-02-05T05:06:12.381Z,100.00
2023-02-05T05:08:39.060Z,100.00
2023-02-05T05:11:07.806Z,100.00
2023-02-05T05:13:35.359Z,100.00
2023-02-05T05:16:02.835Z,100.00
2023-02-05T05:18:29.374Z,100.00
2023-02-05T05:20:56.035Z,100.00
2023-02-05T05:23:22.546Z,100.00
2023-02-05T05:25:49.046Z,100.00
2023-02-05T05:28:16.585Z,100.00
2023-02-05T05:30:44.668Z,100.00
2023-02-05T05:33:11.518Z,100.00
2023-02-05T05:35:38.546Z,100.00
2023-02-05T05:38:05.490Z,100.00
2023-02-05T05:40:51.950Z,100.00
2023-02-05T05:43:39.314Z,100.00
2023-02-05T05:46:06.854Z,100.00
2023-02-05T05:48:33.428Z,100.00
2023-02-05T05:50:59.997Z,100.00
2023-02-05T05:53:26.446Z,100.00
2023-02-05T05:55:52.894Z,100.00
2023-02-05T05:58:19.295Z,100.00
2023-02-05T06:00:45.945Z,100.00
2023-02-05T06:03:13.264Z,100.00
2023-02-05T06:05:39.676Z,100.00
2023-02-05T06:08:06.174Z,100.00
2023-02-05T06:10:33.314Z,100.00
2023-02-05T06:13:00.124Z,100.00
2023-02-05T06:15:26.824Z,100.00
2023-02-05T06:17:53.418Z,100.00
2023-02-05T06:20:20.637Z,100.00
2023-02-05T06:22:47.004Z,100.00
2023-02-05T06:25:13.505Z,100.00
2023-02-05T06:27:39.872Z,100.00
2023-02-05T06:30:06.688Z,100.00
2023-02-05T06:32:33.279Z,100.00
2023-02-05T06:34:59.654Z,100.00
2023-02-05T06:37:45.446Z,100.00
2023-02-05T06:40:15.383Z,100.00
2023-02-05T06:42:41.761Z,100.00
2023-02-05T06:45:09.965Z,100.00
2023-02-05T06:47:37.779Z,100.00
2023-02-05T06:50:06.255Z,100.00
2023-02-05T06:52:32.785Z,100.00
2023-02-05T06:54:59.198Z,100.00
2023-02-05T06:57:25.817Z,100.00
2023-02-05T06:59:52.285Z,100.00
2023-02-05T07:02:18.744Z,100.00
2023-02-05T07:04:47.026Z,100.00
2023-02-05T07:07:13.628Z,100.00
2023-02-05T07:09:40.032Z,100.00
2023-02-05T07:12:06.845Z,100.00
2023-02-05T07:14:40.420Z,100.00
2023-02-05T07:17:07.513Z,100.00
2023-02-05T07:19:34.868Z,100.00
2023-02-05T07:22:01.285Z,100.00
2023-02-05T07:24:27.740Z,100.00
2023-02-05T07:26:54.178Z,100.00
2023-02-05T07:29:20.659Z,100.00
2023-02-05T07:31:49.429Z,100.00
2023-02-05T07:34:15.858Z,100.00
2023-02-05T07:36:42.219Z,100.00
2023-02-05T07:39:08.618Z,100.00
2023-02-05T07:41:35.082Z,100.00
2023-02-05T07:44:01.481Z,100.00
2023-02-05T07:46:29.386Z,100.00
2023-02-05T07:48:55.860Z,100.00
2023-02-05T07:51:24.709Z,100.00
2023-02-05T07:53:52.234Z,100.00
2023-02-05T07:56:22.604Z,100.00
2023-02-05T07:58:49.155Z,100.00
2023-02-05T08:01:16.034Z,100.00
2023-02-05T08:03:42.768Z,100.00
2023-02-05T08:06:11.423Z,100.00
2023-02-05T08:08:37.821Z,100.00
2023-02-05T08:11:06.330Z,100.00
2023-02-05T08:13:34.140Z,100.00
2023-02-05T08:16:04.983Z,100.00
2023-02-05T08:18:31.373Z,100.00
2023-02-05T08:20:57.743Z,100.00
2023-02-05T08:23:24.445Z,100.00
2023-02-05T08:25:55.229Z,100.00
2023-02-05T08:28:22.270Z,100.00
2023-02-05T08:30:49.114Z,100.00
2023-02-05T08:33:15.510Z,100.00
2023-02-05T08:35:42.004Z,100.00
2023-02-05T08:38:08.390Z,100.00
2023-02-05T08:40:35.908Z,100.00
2023-02-05T08:43:02.659Z,100.00
2023-02-05T08:45:29.656Z,100.00
2023-02-05T08:47:56.747Z,100.00
2023-02-05T08:50:23.324Z,100.00
2023-02-05T08:52:50.069Z,100.00
2023-02-05T08:55:20.353Z,100.00
2023-02-05T08:57:46.769Z,100.00
2023-02-05T09:00:15.048Z,100.00
2023-02-05T09:02:43.077Z,100.00
2023-02-05T09:05:10.047Z,100.00
2023-02-05T09:07:41.016Z,100.00
2023-02-05T09:10:09.800Z,100.00
2023-02-05T09:12:36.825Z,100.00
2023-02-05T09:15:04.118Z,100.00
2023-02-05T09:17:30.841Z,100.00
2023-02-05T09:19:57.940Z,100.00
2023-02-05T09:22:24.391Z,100.00
2023-02-05T09:24:50.771Z,100.00
2023-02-05T09:27:17.179Z,100.00
2023-02-05T09:29:43.601Z,100.00
2023-02-05T09:32:09.989Z,100.00
2023-02-05T09:34:36.394Z,100.00
2023-02-05T09:37:02.798Z,100.00
2023-02-05T09:40:17.181Z,100.00
2023-02-05T09:42:36.662Z,100.00
2023-02-05T09:45:13.607Z,100.00
2023-02-05T09:47:57.121Z,100.00
2023-02-05T09:50:29.755Z,100.00
2023-02-05T09:53:12.197Z,100.00
2023-02-05T09:55:44.747Z,100.00
2023-02-05T09:58:23.770Z,100.00
2023-02-05T10:00:58.429Z,100.00
2023-02-05T10:03:32.441Z,100.00
2023-02-05T10:06:13.688Z,100.00
2023-02-05T10:08:49.162Z,100.00
2023-02-05T10:11:38.218Z,100.00
2023-02-05T10:14:30.685Z,100.00
2023-02-05T10:17:15.320Z,100.00
2023-02-05T10:19:55.880Z,100.00
2023-02-05T10:22:31.882Z,100.00
2023-02-05T10:25:04.540Z,100.00
2023-02-05T10:27:43.638Z,100.00
2023-02-05T10:30:24.576Z,100.00
2023-02-05T10:32:59.900Z,100.00
2023-02-05T10:35:39.062Z,100.00
2023-02-05T10:38:16.814Z,100.00
2023-02-05T10:40:46.432Z,100.00
2023-02-05T10:43:36.007Z,100.00
2023-02-05T10:46:03.369Z,100.00
2023-02-05T10:49:01.199Z,100.00
2023-02-05T10:51:40.155Z,100.00
2023-02-05T10:54:18.991Z,100.00
2023-02-05T10:56:45.734Z,100.00
2023-02-05T10:59:26.400Z,100.00
2023-02-05T11:01:55.962Z,100.00
2023-02-05T11:04:33.640Z,100.00
2023-02-05T11:07:01.535Z,100.00
2023-02-05T11:09:30.897Z,100.00
2023-02-05T11:12:06.435Z,100.00
2023-02-05T11:14:36.869Z,100.00
2023-02-05T11:17:24.874Z,100.00
2023-02-05T11:20:05.958Z,100.00
2023-02-05T11:22:39.383Z,100.00
2023-02-05T11:25:17.958Z,100.00
2023-02-05T11:27:57.527Z,100.00
2023-02-05T11:30:56.006Z,100.00
2023-02-05T11:33:21.872Z,100.00
2023-02-05T11:36:02.650Z,100.00
2023-02-05T11:38:33.918Z,100.00
2023-02-05T11:41:04.095Z,100.00
2023-02-05T11:43:34.238Z,99.94
2023-02-05T11:46:03.615Z,99.65
2023-02-05T11:48:44.624Z,99.76
2023-02-05T11:51:15.547Z,99.68
2023-02-05T11:53:54.737Z,99.56
2023-02-05T11:56:25.386Z,99.74
2023-02-05T11:59:04.028Z,99.40
2023-02-05T12:01:33.746Z,99.07
2023-02-05T12:04:06.383Z,98.84
2023-02-05T12:06:41.502Z,98.26
2023-02-05T12:09:12.642Z,97.78
2023-02-05T12:12:03.981Z,96.92
2023-02-05T12:14:39.784Z,97.06
2023-02-05T12:17:28.140Z,96.75
2023-02-05T12:20:22.681Z,95.95
2023-02-05T12:23:04.525Z,94.81
2023-02-05T12:25:54.237Z,94.50
2023-02-05T12:28:33.256Z,94.11
2023-02-05T12:31:08.589Z,93.74
2023-02-05T12:33:44.274Z,93.70
2023-02-05T12:36:22.967Z,93.49
2023-02-05T12:39:14.487Z,92.47
2023-02-05T12:42:18.537Z,92.09
2023-02-05T12:45:22.769Z,91.55
2023-02-05T12:48:08.317Z,91.65
2023-02-05T12:50:40.530Z,91.40
2023-02-05T12:53:39.150Z,91.58
2023-02-05T12:56:39.870Z,91.24
2023-02-05T12:59:14.836Z,91.56
2023-02-05T13:01:48.780Z,91.90
2023-02-05T13:04:28.575Z,90.94
2023-02-05T13:07:05.642Z,90.31
2023-02-05T13:09:46.458Z,89.82
2023-02-05T13:12:17.648Z,89.34
2023-02-05T13:14:47.894Z,89.25
2023-02-05T13:17:29.296Z,89.20
2023-02-05T13:20:01.015Z,89.43
2023-02-05T13:22:54.811Z,89.12
2023-02-05T13:25:38.561Z,89.54
2023-02-05T13:28:39.929Z,89.67
2023-02-05T13:31:16.612Z,89.58
2023-02-05T13:33:43.985Z,89.39
2023-02-05T13:36:27.143Z,89.70
2023-02-05T13:39:13.786Z,88.92
2023-02-05T13:41:43.219Z,88.05
2023-02-05T13:44:28.442Z,87.41
2023-02-05T13:47:35.430Z,87.60
2023-02-05T13:50:16.878Z,87.59
2023-02-05T13:53:06.126Z,87.38
2023-02-05T13:56:03.572Z,85.70
2023-02-05T13:58:52.654Z,85.84
2023-02-05T14:01:25.280Z,86.60
2023-02-05T14:04:02.428Z,87.88
2023-02-05T14:06:35.804Z,89.50
2023-02-05T14:09:09.948Z,90.24
2023-02-05T14:11:49.461Z,90.52
2023-02-05T14:14:39.080Z,91.96
2023-02-05T14:17:43.792Z,93.45
2023-02-05T14:20:25.334Z,94.34
2023-02-05T14:22:57.717Z,94.86
2023-02-05T14:25:36.926Z,96.00
2023-02-05T14:28:28.023Z,96.09
2023-02-05T14:31:03.589Z,95.90
2023-02-05T14:33:39.345Z,97.75
2023-02-05T14:36:22.518Z,97.48
2023-02-05T14:38:59.206Z,96.81
2023-02-05T14:41:33.669Z,97.51
2023-02-05T14:44:04.097Z,97.17
2023-02-05T14:46:36.400Z,97.42
2023-02-05T14:49:06.426Z,97.14
2023-02-05T14:51:41.273Z,96.83
2023-02-05T14:54:17.945Z,96.15
2023-02-05T14:56:49.861Z,95.52
2023-02-05T14:59:29.183Z,94.63
2023-02-05T15:01:57.245Z,94.55
2023-02-05T15:04:57.876Z,93.97
2023-02-05T15:07:27.519Z,93.71
2023-02-05T15:10:02.344Z,93.77
2023-02-05T15:12:51.302Z,93.52
2023-02-05T15:15:31.413Z,94.03
2023-02-05T15:18:04.828Z,93.07
2023-02-05T15:20:33.776Z,91.98
2023-02-05T15:23:04.810Z,91.74
2023-02-05T15:25:36.640Z,91.37
2023-02-05T15:28:23.672Z,90.80
2023-02-05T15:30:57.615Z,91.62
2023-02-05T15:33:39.287Z,90.17
2023-02-05T15:36:13.239Z,90.37
2023-02-05T15:38:48.105Z,90.67
2023-02-05T15:41:15.854Z,89.85
2023-02-05T15:43:58.775Z,89.89
2023-02-05T15:46:25.877Z,88.09
2023-02-05T15:48:52.908Z,88.18
2023-02-05T15:51:39.618Z,87.99
2023-02-05T15:54:07.043Z,87.21
2023-02-05T15:56:37.520Z,85.96
2023-02-05T15:59:11.501Z,84.77
2023-02-05T16:01:44.872Z,84.55
2023-02-05T16:04:18.755Z,84.44
2023-02-05T16:06:45.394Z,84.25
2023-02-05T16:09:20.822Z,84.13
2023-02-05T16:11:48.209Z,83.94
2023-02-05T16:14:17.317Z,84.24
2023-02-05T16:17:15.555Z,84.86
2023-02-05T16:19:50.008Z,84.25
2023-02-05T16:22:40.531Z,83.80
2023-02-05T16:25:29.069Z,83.83
2023-02-05T16:27:57.450Z,83.80
2023-02-05T16:30:43.563Z,83.39
2023-02-05T16:33:45.469Z,83.54
2023-02-05T16:36:29.331Z,82.87
2023-02-05T16:38:59.192Z,83.20
2023-02-05T16:41:26.647Z,82.91
2023-02-05T16:43:55.627Z,82.65
2023-02-05T16:46:25.273Z,82.35
2023-02-05T16:48:57.725Z,82.27
2023-02-05T16:51:31.512Z,82.68
2023-02-05T16:54:00.605Z,82.25
2023-02-05T16:56:34.373Z,82.52
2023-02-05T16:59:02.982Z,82.35
2023-02-05T17:01:38.782Z,82.55
2023-02-05T17:04:05.364Z,82.41
2023-02-05T17:06:37.612Z,82.83
2023-02-05T17:09:05.461Z,83.07
2023-02-05T17:11:38.019Z,83.33
2023-02-05T17:14:29.195Z,83.89
2023-02-05T17:17:00.473Z,85.31
2023-02-05T17:19:32.381Z,84.73
2023-02-05T17:22:14.131Z,83.54
2023-02-05T17:24:46.214Z,83.03
2023-02-05T17:27:18.677Z,83.09
2023-02-05T17:29:46.086Z,81.06
2023-02-05T17:32:18.516Z,80.29
2023-02-05T17:34:45.818Z,79.46
2023-02-05T17:37:12.729Z,79.29
2023-02-05T17:39:40.822Z,79.25
2023-02-05T17:42:18.207Z,78.61
2023-02-05T17:44:44.585Z,78.70
2023-02-05T17:47:11.030Z,78.58
2023-02-05T17:49:37.377Z,78.11
2023-02-05T17:52:03.881Z,78.38
2023-02-05T17:54:30.900Z,78.39
2023-02-05T17:57:13.180Z,78.47
2023-02-05T17:59:40.259Z,78.83
2023-02-05T18:02:07.625Z,78.80
2023-02-05T18:04:34.214Z,79.40
2023-02-05T18:07:00.702Z,80.04
2023-02-05T18:09:27.535Z,80.02
2023-02-05T18:11:53.970Z,80.01
2023-02-05T18:14:21.657Z,80.06
2023-02-05T18:16:48.060Z,80.36
2023-02-05T18:19:14.505Z,80.89
2023-02-05T18:21:40.938Z,81.09
2023-02-05T18:24:07.419Z,81.29
2023-02-05T18:26:33.875Z,81.45
2023-02-05T18:29:00.262Z,81.26
2023-02-05T18:31:26.696Z,81.47
2023-02-05T18:33:54.045Z,81.65
2023-02-05T18:36:21.005Z,81.37
2023-02-05T18:38:47.442Z,81.66
2023-02-05T18:41:16.139Z,81.38
2023-02-05T18:43:43.533Z,81.38
2023-02-05T18:46:18.309Z,81.21
2023-02-05T18:48:49.186Z,81.49
2023-02-05T18:51:18.694Z,81.31
2023-02-05T18:53:47.318Z,81.12
2023-02-05T18:56:13.969Z,80.96
2023-02-05T18:58:40.830Z,81.19
2023-02-05T19:01:14.996Z,81.71
2023-02-05T19:03:42.737Z,82.02
2023-02-05T19:06:11.108Z,81.64
2023-02-05T19:08:38.184Z,81.27
2023-02-05T19:11:20.681Z,81.79
2023-02-05T19:13:48.073Z,81.64
2023-02-05T19:16:16.603Z,82.04
2023-02-05T19:18:45.014Z,81.95
2023-02-05T19:21:15.062Z,81.96
2023-02-05T19:23:42.025Z,82.28
2023-02-05T19:26:14.006Z,82.07
2023-02-05T19:28:43.779Z,82.24
2023-02-05T19:31:13.958Z,82.97
2023-02-05T19:33:41.628Z,82.94
2023-02-05T19:36:10.175Z,83.57
2023-02-05T19:38:38.499Z,83.36
2023-02-05T19:41:09.052Z,83.48
2023-02-05T19:43:35.874Z,83.42
2023-02-05T19:46:07.234Z,83.94
2023-02-05T19:48:34.474Z,84.03
2023-02-05T19:51:09.935Z,83.98
2023-02-05T19:53:38.979Z,84.44
2023-02-05T19:56:11.772Z,84.53
2023-02-05T19:58:40.432Z,84.84
2023-02-05T20:01:23.634Z,84.85
2023-02-05T20:03:52.180Z,85.09
2023-02-05T20:06:22.703Z,85.48
2023-02-05T20:08:49.241Z,85.79
2023-02-05T20:11:16.509Z,86.23
2023-02-05T20:13:42.991Z,86.21
2023-02-05T20:16:13.213Z,86.70
2023-02-05T20:18:41.341Z,87.14
2023-02-05T20:21:12.416Z,87.70
2023-02-05T20:23:40.032Z,88.12
2023-02-05T20:26:07.742Z,88.00
2023-02-05T20:28:59.390Z,88.33
2023-02-05T20:31:35.009Z,88.81
2023-02-05T20:34:03.048Z,88.98
2023-02-05T20:36:31.589Z,89.14
2023-02-05T20:38:59.784Z,89.36
2023-02-05T20:41:26.229Z,89.15
2023-02-05T20:43:53.644Z,89.85
2023-02-05T20:46:20.674Z,89.87
2023-02-05T20:48:48.338Z,90.25
2023-02-05T20:51:18.913Z,90.43
2023-02-05T20:53:46.229Z,90.53
2023-02-05T20:56:14.794Z,91.00
2023-02-05T20:58:41.611Z,91.13
2023-02-05T21:01:09.713Z,91.75
2023-02-05T21:03:37.122Z,92.35
2023-02-05T21:06:04.344Z,93.08
2023-02-05T21:08:30.930Z,93.50
2023-02-05T21:10:57.580Z,94.01
2023-02-05T21:13:23.943Z,94.54
2023-02-05T21:15:58.973Z,94.66
2023-02-05T21:18:26.695Z,95.14
2023-02-05T21:20:54.122Z,95.68
2023-02-05T21:23:21.222Z,95.69
2023-02-05T21:25:48.072Z,95.96
2023-02-05T21:28:14.783Z,96.38
2023-02-05T21:30:42.948Z,96.77
2023-02-05T21:33:09.363Z,97.21
2023-02-05T21:35:39.037Z,97.25
2023-02-05T21:38:05.511Z,97.63
2023-02-05T21:40:33.962Z,97.77
2023-02-05T21:43:00.576Z,98.03
2023-02-05T21:45:26.991Z,98.32
2023-02-05T21:47:53.391Z,98.70
2023-02-05T21:50:19.770Z,99.39
2023-02-05T21:52:46.216Z,99.55
2023-02-05T21:55:12.602Z,99.21
2023-02-05T21:57:38.949Z,99.43
2023-02-05T22:00:05.645Z,98.91
2023-02-05T22:02:38.487Z,98.96
2023-02-05T22:05:05.136Z,99.11
2023-02-05T22:07:31.758Z,99.13
2023-02-05T22:09:58.166Z,99.05
2023-02-05T22:12:24.511Z,99.51
2023-02-05T22:14:50.979Z,99.71
2023-02-05T22:17:17.352Z,99.87
2023-02-05T22:19:43.739Z,99.65
2023-02-05T22:22:10.113Z,99.90
2023-02-05T22:24:36.495Z,100.00
2023-02-05T22:27:03.124Z,100.00
2023-02-05T22:29:29.824Z,100.00
2023-02-05T22:31:56.262Z,100.00
2023-02-05T22:34:22.919Z,100.00
2023-02-05T22:36:49.557Z,100.00
2023-02-05T22:39:15.963Z,100.00
2023-02-05T22:41:44.418Z,100.00
2023-02-05T22:44:11.699Z,100.00
2023-02-05T22:46:41.578Z,100.00
2023-02-05T22:49:08.488Z,100.00
2023-02-05T22:51:37.722Z,100.00
2023-02-05T22:54:05.138Z,100.00
2023-02-05T22:56:32.506Z,100.00
2023-02-05T22:59:01.348Z,100.00
2023-02-05T23:01:32.597Z,100.00
2023-02-05T23:04:00.716Z,100.00
2023-02-05T23:06:30.677Z,100.00
2023-02-05T23:08:59.698Z,100.00
2023-02-05T23:11:28.025Z,100.00
2023-02-05T23:13:55.553Z,100.00
2023-02-05T23:16:30.992Z,100.00
2023-02-05T23:19:03.931Z,100.00
2023-02-05T23:21:32.993Z,100.00
2023-02-05T23:23:59.543Z,100.00
2023-02-05T23:26:28.729Z,100.00
2023-02-05T23:28:55.874Z,100.00
2023-02-05T23:31:24.314Z,100.00
2023-02-05T23:33:51.980Z,100.00
2023-02-05T23:36:18.517Z,100.00
2023-02-05T23:38:45.237Z,100.00
2023-02-05T23:41:12.199Z,100.00
2023-02-05T23:43:39.090Z,100.00
2023-02-05T23:46:07.399Z,100.00
2023-02-05T23:48:34.174Z,100.00
2023-02-05T23:51:00.861Z,100.00
2023-02-05T23:53:27.564Z,100.00
2023-02-05T23:55:54.144Z,100.00
2023-02-05T23:58:25.607Z,100.00
